createdAt,value
2023-06-04T00:02:13.036Z,100198.75
2023-06-04T00:04:40.213Z,100193.97
2023-06-04T00:07:07.682Z,100201.25
2023-06-04T00:09:34.438Z,100202.84
2023-06-04T00:12:01.477Z,100192.41
2023-06-04T00:14:28.486Z,100192.63
2023-06-04T00:16:55.389Z,100193.72
2023-06-04T00:19:22.398Z,100189.41
2023-06-04T00:21:49.428Z,100188.84
2023-06-04T00:24:16.908Z,100186.53
2023-06-04T00:26:43.935Z,100187.16
2023-06-04T00:29:11.057Z,100191.22
2023-06-04T00:31:38.070Z,100192.72
2023-06-04T00:34:06.309Z,100185.09
2023-06-04T00:36:33.282Z,100195.78
2023-06-04T00:39:00.388Z,100196.22
2023-06-04T00:41:27.565Z,100196.22
2023-06-04T00:43:57.545Z,100191.44
2023-06-04T00:46:26.779Z,100189.41
2023-06-04T00:48:54.497Z,100189.41
2023-06-04T00:51:22.489Z,100195.78
2023-06-04T00:53:51.472Z,100194.63
2023-06-04T00:56:19.116Z,100196.66
2023-06-04T00:58:47.448Z,100197.53
2023-06-04T01:01:41.893Z,100193.59
2023-06-04T01:04:17.916Z,100198.03
2023-06-04T01:06:51.549Z,100196.41
2023-06-04T01:09:20.935Z,100194.69
2023-06-04T01:11:47.762Z,100194.69
2023-06-04T01:14:19.597Z,100187.09
2023-06-04T01:17:06.238Z,100190.63
2023-06-04T01:20:12.968Z,100189.81
2023-06-04T01:22:44.575Z,100191.63
2023-06-04T01:25:20.762Z,100196.19
2023-06-04T01:27:53.680Z,100192.53
2023-06-04T01:30:26.536Z,100191.28
2023-06-04T01:32:57.578Z,100197.00
2023-06-04T01:35:27.408Z,100196.22
2023-06-04T01:37:56.290Z,100199.53
2023-06-04T01:40:23.750Z,100199.22
2023-06-04T01:42:50.670Z,100199.44
2023-06-04T01:45:18.617Z,100195.00
2023-06-04T01:47:45.649Z,100194.88
2023-06-04T01:50:12.670Z,100198.66
2023-06-04T01:52:41.056Z,100190.44
2023-06-04T01:55:10.599Z,100196.66
2023-06-04T01:57:37.886Z,100198.06
2023-06-04T02:00:09.439Z,100195.66
2023-06-04T02:02:46.918Z,100195.78
2023-06-04T02:05:15.889Z,100196.66
2023-06-04T02:07:46.239Z,100202.28
2023-06-04T02:10:15.528Z,100206.00
2023-06-04T02:12:55.605Z,100200.91
2023-06-04T02:15:24.219Z,100200.78
2023-06-04T02:17:56.602Z,100203.50
2023-06-04T02:20:23.723Z,100204.78
2023-06-04T02:22:50.608Z,100202.69
2023-06-04T02:25:17.526Z,100204.78
2023-06-04T02:27:44.523Z,100204.31
2023-06-04T02:30:11.772Z,100202.03
2023-06-04T02:32:38.621Z,100206.56
2023-06-04T02:35:06.132Z,100204.63
2023-06-04T02:37:33.074Z,100202.38
2023-06-04T02:40:00.321Z,100196.47
2023-06-04T02:42:27.448Z,100198.88
2023-06-04T02:44:54.386Z,100199.09
2023-06-04T02:47:21.454Z,100199.28
2023-06-04T02:49:48.259Z,100204.91
2023-06-04T02:52:15.175Z,100213.38
2023-06-04T02:54:42.156Z,100204.50
2023-06-04T02:57:10.373Z,100208.06
2023-06-04T02:59:37.640Z,100207.59
2023-06-04T03:02:06.485Z,100216.81
2023-06-04T03:04:35.432Z,100203.84
2023-06-04T03:07:05.486Z,100202.91
2023-06-04T03:09:32.774Z,100203.50
2023-06-04T03:12:03.010Z,100208.63
2023-06-04T03:14:33.690Z,100211.25
2023-06-04T03:17:08.597Z,100214.41
2023-06-04T03:19:39.960Z,100223.44
2023-06-04T03:22:08.030Z,100236.38
2023-06-04T03:24:37.323Z,100240.56
2023-06-04T03:27:05.270Z,100229.88
2023-06-04T03:29:34.053Z,100227.75
2023-06-04T03:32:04.109Z,100236.41
2023-06-04T03:34:35.622Z,100235.13
2023-06-04T03:37:03.965Z,100232.63
2023-06-04T03:39:31.531Z,100239.13
2023-06-04T03:42:00.266Z,100239.00
2023-06-04T03:44:27.922Z,100241.94
2023-06-04T03:46:55.053Z,100245.72
2023-06-04T03:49:23.029Z,100242.56
2023-06-04T03:51:51.008Z,100239.34
2023-06-04T03:54:19.544Z,100238.34
2023-06-04T03:56:48.808Z,100243.09
2023-06-04T03:59:15.912Z,100249.47
2023-06-04T04:01:44.222Z,100249.34
2023-06-04T04:04:11.482Z,100254.59
2023-06-04T04:06:38.484Z,100248.44
2023-06-04T04:09:07.975Z,100251.38
2023-06-04T04:11:37.471Z,100246.19
2023-06-04T04:14:05.052Z,100254.94
2023-06-04T04:16:32.207Z,100263.00
2023-06-04T04:18:59.452Z,100267.66
2023-06-04T04:21:27.455Z,100258.69
2023-06-04T04:23:54.440Z,100262.53
2023-06-04T04:26:21.629Z,100260.41
2023-06-04T04:28:53.618Z,100271.97
2023-06-04T04:31:23.566Z,100269.97
2023-06-04T04:33:52.257Z,100270.41
2023-06-04T04:36:21.053Z,100269.84
2023-06-04T04:38:56.372Z,100258.56
2023-06-04T04:41:30.204Z,100261.75
2023-06-04T04:44:05.872Z,100263.25
2023-06-04T04:46:33.547Z,100261.28
2023-06-04T04:49:00.398Z,100270.19
2023-06-04T04:51:27.782Z,100264.25
2023-06-04T04:53:55.945Z,100267.34
2023-06-04T04:56:24.569Z,100267.44
2023-06-04T04:58:52.632Z,100271.09
2023-06-04T05:01:20.893Z,100269.38
2023-06-04T05:03:48.310Z,100271.56
2023-06-04T05:06:16.782Z,100275.06
2023-06-04T05:08:44.634Z,100276.31
2023-06-04T05:11:13.100Z,100273.72
2023-06-04T05:13:44.503Z,100274.81
2023-06-04T05:16:15.288Z,100279.03
2023-06-04T05:18:46.042Z,100277.66
2023-06-04T05:21:18.172Z,100282.47
2023-06-04T05:23:51.509Z,100284.28
2023-06-04T05:26:24.405Z,100284.59
2023-06-04T05:28:53.088Z,100275.72
2023-06-04T05:31:20.084Z,100285.50
2023-06-04T05:33:49.041Z,100287.22
2023-06-04T05:36:19.079Z,100289.31
2023-06-04T05:38:58.350Z,100288.72
2023-06-04T05:41:30.170Z,100289.88
2023-06-04T05:43:59.184Z,100287.03
2023-06-04T05:46:26.548Z,100289.09
2023-06-04T05:48:55.177Z,100308.53
2023-06-04T05:51:23.543Z,100300.91
2023-06-04T05:53:51.001Z,100299.41
2023-06-04T05:56:18.767Z,100303.97
2023-06-04T05:58:51.995Z,100308.97
2023-06-04T06:01:18.924Z,100311.16
2023-06-04T06:03:46.213Z,100311.06
2023-06-04T06:06:13.852Z,100313.31
2023-06-04T06:08:41.093Z,100318.53
2023-06-04T06:11:10.883Z,100322.16
2023-06-04T06:13:38.574Z,100317.31
2023-06-04T06:16:06.209Z,100319.78
2023-06-04T06:18:34.121Z,100327.00
2023-06-04T06:21:01.351Z,100332.19
2023-06-04T06:23:29.080Z,100331.03
2023-06-04T06:25:56.745Z,100331.25
2023-06-04T06:28:27.392Z,100325.25
2023-06-04T06:30:56.196Z,100334.03
2023-06-04T06:33:24.854Z,100341.91
2023-06-04T06:35:51.822Z,100340.97
2023-06-04T06:38:21.332Z,100343.03
2023-06-04T06:40:48.733Z,100344.63
2023-06-04T06:43:16.599Z,100354.16
2023-06-04T06:45:43.540Z,100354.63
2023-06-04T06:48:10.491Z,100340.31
2023-06-04T06:50:37.453Z,100345.97
2023-06-04T06:53:04.820Z,100341.44
2023-06-04T06:55:32.039Z,100350.06
2023-06-04T06:57:59.369Z,100336.53
2023-06-04T07:00:29.262Z,100339.06
2023-06-04T07:02:57.486Z,100342.47
2023-06-04T07:05:24.475Z,100342.22
2023-06-04T07:07:51.278Z,100344.94
2023-06-04T07:10:18.261Z,100354.88
2023-06-04T07:12:45.144Z,100346.44
2023-06-04T07:15:12.169Z,100348.13
2023-06-04T07:17:39.125Z,100352.81
2023-06-04T07:20:08.013Z,100351.66
2023-06-04T07:22:35.359Z,100349.06
2023-06-04T07:25:02.410Z,100357.25
2023-06-04T07:27:31.153Z,100359.94
2023-06-04T07:29:57.887Z,100360.00
2023-06-04T07:32:24.885Z,100364.53
2023-06-04T07:34:51.827Z,100361.22
2023-06-04T07:37:18.980Z,100364.19
2023-06-04T07:39:46.041Z,100367.16
2023-06-04T07:42:12.829Z,100367.84
2023-06-04T07:44:39.715Z,100366.34
2023-06-04T07:47:06.755Z,100369.22
2023-06-04T07:49:33.638Z,100369.69
2023-06-04T07:52:01.505Z,100370.00
2023-06-04T07:54:28.443Z,100376.00
2023-06-04T07:56:57.315Z,100372.34
2023-06-04T07:59:24.855Z,100382.47
2023-06-04T08:01:52.884Z,100381.09
2023-06-04T08:04:21.744Z,100376.44
2023-06-04T08:06:48.986Z,100379.25
2023-06-04T08:09:16.428Z,100374.25
2023-06-04T08:11:46.748Z,100380.59
2023-06-04T08:14:14.247Z,100381.66
2023-06-04T08:16:42.075Z,100381.44
2023-06-04T08:19:31.501Z,100373.03
2023-06-04T08:21:59.245Z,100375.94
2023-06-04T08:24:39.349Z,100388.00
2023-06-04T08:27:26.090Z,100391.69
2023-06-04T08:29:55.144Z,100388.19
2023-06-04T08:32:42.272Z,100395.31
2023-06-04T08:35:18.324Z,100389.16
2023-06-04T08:37:45.197Z,100394.38
2023-06-04T08:40:12.993Z,100391.66
2023-06-04T08:42:46.011Z,100398.19
2023-06-04T08:45:17.734Z,100393.09
2023-06-04T08:47:49.067Z,100394.56
2023-06-04T08:50:19.896Z,100396.69
2023-06-04T08:52:47.507Z,100397.81
2023-06-04T08:55:15.500Z,100400.97
2023-06-04T08:57:44.759Z,100400.00
2023-06-04T09:00:12.052Z,100403.13
2023-06-04T09:02:40.441Z,100403.00
2023-06-04T09:05:11.758Z,100406.03
2023-06-04T09:07:41.999Z,100403.16
2023-06-04T09:10:15.518Z,100408.69
2023-06-04T09:12:49.338Z,100415.69
2023-06-04T09:15:16.254Z,100415.03
2023-06-04T09:17:43.166Z,100415.66
2023-06-04T09:20:19.648Z,100420.50
2023-06-04T09:22:46.588Z,100416.00
2023-06-04T09:25:22.786Z,100419.59
2023-06-04T09:27:50.364Z,100417.88
2023-06-04T09:30:17.465Z,100416.78
2023-06-04T09:32:44.578Z,100410.84
2023-06-04T09:35:19.340Z,100414.72
2023-06-04T09:37:58.738Z,100410.28
2023-06-04T09:40:41.364Z,100420.19
2023-06-04T09:43:09.500Z,100410.41
2023-06-04T09:45:37.211Z,100414.28
2023-06-04T09:48:10.550Z,100417.38
2023-06-04T09:50:43.132Z,100419.66
2023-06-04T09:53:18.965Z,100415.22
2023-06-04T09:55:45.870Z,100418.38
2023-06-04T09:58:15.044Z,100419.91
2023-06-04T10:00:42.927Z,100422.81
2023-06-04T10:03:14.298Z,100418.06
2023-06-04T10:05:41.446Z,100415.09
2023-06-04T10:08:11.628Z,100412.81
2023-06-04T10:10:41.975Z,100416.88
2023-06-04T10:13:22.280Z,100410.50
2023-06-04T10:15:49.630Z,100412.84
2023-06-04T10:18:17.628Z,100410.72
2023-06-04T10:20:44.790Z,100411.66
2023-06-04T10:23:13.772Z,100416.78
2023-06-04T10:25:40.802Z,100405.75
2023-06-04T10:28:07.592Z,100420.41
2023-06-04T10:30:34.661Z,100418.00
2023-06-04T10:33:01.844Z,100416.19
2023-06-04T10:35:36.093Z,100417.19
2023-06-04T10:38:11.597Z,100417.47
2023-06-04T10:40:39.346Z,100412.75
2023-06-04T10:43:14.326Z,100414.16
2023-06-04T10:45:42.043Z,100409.72
2023-06-04T10:48:10.800Z,100413.25
2023-06-04T10:50:51.465Z,100407.22
2023-06-04T10:53:20.601Z,100410.06
2023-06-04T10:55:48.976Z,100408.22
2023-06-04T10:58:16.650Z,100413.09
2023-06-04T11:00:51.027Z,100409.53
2023-06-04T11:03:18.952Z,100417.72
2023-06-04T11:05:47.827Z,100415.41
2023-06-04T11:08:16.348Z,100411.19
2023-06-04T11:10:46.232Z,100410.47
2023-06-04T11:13:13.748Z,100416.22
2023-06-04T11:15:45.695Z,100413.81
2023-06-04T11:18:17.779Z,100424.63
2023-06-04T11:20:47.438Z,100415.25
2023-06-04T11:23:18.048Z,100417.38
2023-06-04T11:25:46.509Z,100414.69
2023-06-04T11:28:20.052Z,100413.09
2023-06-04T11:31:07.586Z,100414.38
2023-06-04T11:33:45.545Z,100421.25
2023-06-04T11:36:26.282Z,100409.06
2023-06-04T11:39:04.314Z,100407.97
2023-06-04T11:41:32.422Z,100419.38
2023-06-04T11:44:02.324Z,100412.06
2023-06-04T11:46:29.288Z,100410.13
2023-06-04T11:48:56.695Z,100422.59
2023-06-04T11:51:24.369Z,100416.81
2023-06-04T11:53:51.478Z,100417.28
2023-06-04T11:56:20.338Z,100422.69
2023-06-04T11:58:47.513Z,100418.13
2023-06-04T12:01:15.001Z,100428.06
2023-06-04T12:03:43.192Z,100416.25
2023-06-04T12:06:18.534Z,100420.75
2023-06-04T12:08:58.497Z,100414.31
2023-06-04T12:11:32.408Z,100416.03
2023-06-04T12:14:07.166Z,100415.50
2023-06-04T12:16:34.899Z,100419.38
2023-06-04T12:19:12.319Z,100420.44
2023-06-04T12:21:40.685Z,100423.63
2023-06-04T12:24:11.811Z,100417.19
2023-06-04T12:26:41.926Z,100414.47
2023-06-04T12:29:17.277Z,100420.84
2023-06-04T12:31:46.774Z,100413.78
2023-06-04T12:34:15.648Z,100415.66
2023-06-04T12:36:44.031Z,100417.25
2023-06-04T12:39:12.185Z,100413.84
2023-06-04T12:41:39.195Z,100414.00
2023-06-04T12:44:06.262Z,100408.66
2023-06-04T12:46:33.235Z,100410.75
2023-06-04T12:49:00.122Z,100409.72
2023-06-04T12:51:27.571Z,100414.22
2023-06-04T12:53:54.471Z,100418.34
2023-06-04T12:56:21.578Z,100420.41
2023-06-04T12:58:48.622Z,100422.25
2023-06-04T13:01:16.618Z,100427.91
2023-06-04T13:03:43.983Z,100426.91
2023-06-04T13:06:11.156Z,100418.28
2023-06-04T13:08:38.441Z,100422.75
2023-06-04T13:11:06.707Z,100416.66
2023-06-04T13:13:34.105Z,100417.72
2023-06-04T13:16:01.247Z,100410.41
2023-06-04T13:18:28.305Z,100411.06
2023-06-04T13:20:55.339Z,100417.44
2023-06-04T13:23:24.177Z,100412.03
2023-06-04T13:25:54.034Z,100406.59
2023-06-04T13:28:21.417Z,100404.69
2023-06-04T13:30:49.245Z,100411.94
2023-06-04T13:33:16.223Z,100417.53
2023-06-04T13:35:43.603Z,100416.81
2023-06-04T13:38:10.433Z,100414.31
2023-06-04T13:40:37.617Z,100418.00
2023-06-04T13:43:05.740Z,100415.38
2023-06-04T13:45:33.217Z,100411.19
2023-06-04T13:48:03.546Z,100411.47
2023-06-04T13:50:30.905Z,100409.41
2023-06-04T13:52:59.251Z,100414.59
2023-06-04T13:55:26.203Z,100414.41
2023-06-04T13:57:54.660Z,100412.56
2023-06-04T14:00:22.187Z,100412.59
2023-06-04T14:02:50.785Z,100408.34
2023-06-04T14:05:17.978Z,100412.50
2023-06-04T14:07:45.218Z,100407.22
2023-06-04T14:10:12.987Z,100408.44
2023-06-04T14:12:41.648Z,100396.59
2023-06-04T14:15:09.729Z,100394.03
2023-06-04T14:17:37.118Z,100395.06
2023-06-04T14:20:08.675Z,100403.50
2023-06-04T14:22:37.393Z,100397.72
2023-06-04T14:25:05.755Z,100394.28
2023-06-04T14:27:33.360Z,100392.97
2023-06-04T14:30:00.671Z,100395.94
2023-06-04T14:32:27.643Z,100395.09
2023-06-04T14:34:54.568Z,100395.16
2023-06-04T14:37:22.011Z,100390.09
2023-06-04T14:39:49.356Z,100390.72
2023-06-04T14:42:16.973Z,100394.22
2023-06-04T14:44:43.815Z,100392.94
2023-06-04T14:47:11.866Z,100396.09
2023-06-04T14:49:38.779Z,100397.34
2023-06-04T14:52:06.245Z,100401.22
2023-06-04T14:54:33.977Z,100401.16
2023-06-04T14:57:01.177Z,100406.03
2023-06-04T14:59:28.111Z,100409.34
2023-06-04T15:01:55.920Z,100414.59
2023-06-04T15:04:23.778Z,100409.22
2023-06-04T15:06:51.093Z,100402.78
2023-06-04T15:09:18.221Z,100394.34
2023-06-04T15:11:46.079Z,100396.44
2023-06-04T15:14:13.004Z,100402.84
2023-06-04T15:16:39.959Z,100391.97
2023-06-04T15:19:07.064Z,100388.78
2023-06-04T15:21:34.020Z,100397.97
2023-06-04T15:24:01.079Z,100393.63
2023-06-04T15:26:28.314Z,100379.41
2023-06-04T15:28:57.654Z,100381.50
2023-06-04T15:31:24.781Z,100374.38
2023-06-04T15:33:51.902Z,100379.34
2023-06-04T15:36:18.781Z,100378.31
2023-06-04T15:38:45.838Z,100379.41
2023-06-04T15:41:12.765Z,100378.34
2023-06-04T15:43:39.643Z,100374.47
2023-06-04T15:46:06.627Z,100372.91
2023-06-04T15:48:33.613Z,100368.69
2023-06-04T15:51:00.877Z,100369.19
2023-06-04T15:53:27.743Z,100378.91
2023-06-04T15:55:54.662Z,100381.53
2023-06-04T15:58:21.563Z,100381.91
2023-06-04T16:00:48.370Z,100373.44
2023-06-04T16:03:15.278Z,100369.81
2023-06-04T16:05:42.299Z,100369.19
2023-06-04T16:08:09.332Z,100366.56
2023-06-04T16:10:36.312Z,100361.06
2023-06-04T16:13:03.698Z,100366.28
2023-06-04T16:15:30.633Z,100371.31
2023-06-04T16:17:57.536Z,100374.47
2023-06-04T16:20:24.522Z,100372.28
2023-06-04T16:22:51.693Z,100370.25
2023-06-04T16:25:19.190Z,100359.88
2023-06-04T16:27:47.662Z,100366.38
2023-06-04T16:30:15.590Z,100358.66
2023-06-04T16:32:42.845Z,100365.75
2023-06-04T16:35:10.967Z,100365.81
2023-06-04T16:37:41.303Z,100365.09
2023-06-04T16:40:09.038Z,100364.06
2023-06-04T16:42:40.209Z,100369.31
2023-06-04T16:45:07.552Z,100358.06
2023-06-04T16:47:36.016Z,100362.47
2023-06-04T16:50:03.164Z,100361.03
2023-06-04T16:52:32.169Z,100358.88
2023-06-04T16:55:00.347Z,100359.59
2023-06-04T16:57:27.776Z,100362.50
2023-06-04T16:59:54.742Z,100358.56
2023-06-04T17:02:22.011Z,100358.50
2023-06-04T17:04:50.949Z,100356.69
2023-06-04T17:07:17.804Z,100350.31
2023-06-04T17:09:46.497Z,100354.19
2023-06-04T17:12:14.984Z,100356.00
2023-06-04T17:14:41.848Z,100355.66
2023-06-04T17:17:08.801Z,100360.13
2023-06-04T17:19:37.503Z,100363.78
2023-06-04T17:22:04.621Z,100359.31
2023-06-04T17:24:31.758Z,100357.00
2023-06-04T17:26:58.756Z,100360.44
2023-06-04T17:29:25.792Z,100361.09
2023-06-04T17:31:52.671Z,100365.22
2023-06-04T17:34:19.735Z,100354.72
2023-06-04T17:36:46.609Z,100356.78
2023-06-04T17:39:13.505Z,100358.38
2023-06-04T17:41:40.794Z,100362.31
2023-06-04T17:44:07.644Z,100352.63
2023-06-04T17:46:35.152Z,100353.41
2023-06-04T17:49:04.397Z,100353.34
2023-06-04T17:51:31.414Z,100348.09
2023-06-04T17:53:58.314Z,100348.66
2023-06-04T17:56:25.212Z,100354.81
2023-06-04T17:58:52.202Z,100355.84
2023-06-04T18:01:19.190Z,100360.44
2023-06-04T18:03:51.034Z,100366.56
2023-06-04T18:06:20.967Z,100361.72
2023-06-04T18:08:48.013Z,100374.78
2023-06-04T18:11:15.182Z,100352.97
2023-06-04T18:13:42.207Z,100365.31
2023-06-04T18:16:14.767Z,100363.28
2023-06-04T18:18:43.564Z,100358.75
2023-06-04T18:21:11.456Z,100372.56
2023-06-04T18:23:39.023Z,100371.25
2023-06-04T18:26:06.579Z,100364.72
2023-06-04T18:28:33.614Z,100368.38
2023-06-04T18:31:01.046Z,100373.97
2023-06-04T18:33:28.372Z,100368.13
2023-06-04T18:35:55.249Z,100369.94
2023-06-04T18:38:22.248Z,100369.41
2023-06-04T18:40:50.858Z,100376.22
2023-06-04T18:43:17.924Z,100382.88
2023-06-04T18:45:45.030Z,100377.28
2023-06-04T18:48:12.038Z,100374.91
2023-06-04T18:50:39.860Z,100381.75
2023-06-04T18:53:06.878Z,100384.06
2023-06-04T18:55:33.853Z,100380.75
2023-06-04T18:58:00.874Z,100388.06
2023-06-04T19:00:28.124Z,100386.00
2023-06-04T19:02:56.020Z,100382.97
2023-06-04T19:05:23.351Z,100387.91
2023-06-04T19:07:50.176Z,100386.06
2023-06-04T19:10:18.067Z,100381.59
2023-06-04T19:12:44.918Z,100382.19
2023-06-04T19:15:12.066Z,100384.56
2023-06-04T19:17:38.990Z,100383.78
2023-06-04T19:20:06.689Z,100391.25
2023-06-04T19:22:33.673Z,100388.75
2023-06-04T19:25:00.732Z,100390.47
2023-06-04T19:27:27.748Z,100388.84
2023-06-04T19:29:55.571Z,100386.94
2023-06-04T19:32:22.842Z,100390.97
2023-06-04T19:34:50.086Z,100389.84
2023-06-04T19:37:17.551Z,100395.09
2023-06-04T19:39:44.584Z,100395.69
2023-06-04T19:42:11.505Z,100393.06
2023-06-04T19:44:38.471Z,100390.53
2023-06-04T19:47:06.306Z,100402.38
2023-06-04T19:49:33.316Z,100406.38
2023-06-04T19:52:00.243Z,100409.56
2023-06-04T19:54:27.073Z,100405.09
2023-06-04T19:56:53.924Z,100398.75
2023-06-04T19:59:21.103Z,100407.81
2023-06-04T20:01:48.215Z,100405.00
2023-06-04T20:04:16.293Z,100408.84
2023-06-04T20:06:44.813Z,100410.00
2023-06-04T20:09:13.408Z,100410.56
2023-06-04T20:11:40.257Z,100410.56
2023-06-04T20:14:07.145Z,100421.84
2023-06-04T20:16:34.069Z,100422.31
2023-06-04T20:19:01.042Z,100423.91
2023-06-04T20:21:33.925Z,100423.47
2023-06-04T20:24:02.955Z,100420.63
2023-06-04T20:26:30.047Z,100421.13
2023-06-04T20:28:59.719Z,100426.22
2023-06-04T20:31:27.869Z,100417.34
2023-06-04T20:33:58.343Z,100415.53
2023-06-04T20:36:26.083Z,100413.13
2023-06-04T20:38:53.219Z,100410.19
2023-06-04T20:41:22.416Z,100413.59
2023-06-04T20:43:51.499Z,100414.72
2023-06-04T20:46:18.532Z,100410.28
2023-06-04T20:48:45.960Z,100412.47
2023-06-04T20:51:14.763Z,100408.47
2023-06-04T20:53:48.225Z,100407.91
2023-06-04T20:56:15.688Z,100408.47
2023-06-04T20:58:43.806Z,100403.00
2023-06-04T21:01:10.863Z,100404.28
2023-06-04T21:03:37.858Z,100402.69
2023-06-04T21:06:04.836Z,100396.44
2023-06-04T21:08:31.697Z,100402.59
2023-06-04T21:10:59.027Z,100397.34
2023-06-04T21:13:26.069Z,100388.66
2023-06-04T21:15:53.044Z,100388.09
2023-06-04T21:18:20.036Z,100386.28
2023-06-04T21:20:46.926Z,100387.41
2023-06-04T21:23:13.825Z,100388.31
2023-06-04T21:25:40.730Z,100394.34
2023-06-04T21:28:07.647Z,100393.31
2023-06-04T21:30:34.566Z,100396.97
2023-06-04T21:33:01.783Z,100393.00
2023-06-04T21:35:28.775Z,100394.25
2023-06-04T21:37:55.684Z,100386.97
2023-06-04T21:40:22.616Z,100400.28
2023-06-04T21:42:49.613Z,100402.91
2023-06-04T21:45:18.316Z,100401.09
2023-06-04T21:47:46.917Z,100396.31
2023-06-04T21:50:13.811Z,100396.66
2023-06-04T21:52:40.874Z,100401.31
2023-06-04T21:55:08.267Z,100396.41
2023-06-04T21:57:35.163Z,100395.72
2023-06-04T22:00:02.457Z,100398.34
2023-06-04T22:02:53.240Z,100406.56
2023-06-04T22:05:20.943Z,100413.75
2023-06-04T22:07:47.877Z,100415.69
2023-06-04T22:10:17.230Z,100419.53
2023-06-04T22:12:45.550Z,100424.66
2023-06-04T22:15:12.686Z,100416.09
2023-06-04T22:17:39.705Z,100422.94
2023-06-04T22:20:08.560Z,100422.94
2023-06-04T22:22:35.815Z,100408.81
2023-06-04T22:25:02.706Z,100427.25
2023-06-04T22:27:32.241Z,100420.75
2023-06-04T22:29:59.245Z,100419.72
2023-06-04T22:32:26.837Z,100423.97
2023-06-04T22:34:53.969Z,100426.34
2023-06-04T22:37:20.870Z,100429.66
2023-06-04T22:39:48.042Z,100420.91
2023-06-04T22:42:16.746Z,100412.22
2023-06-04T22:44:43.695Z,100409.03
2023-06-04T22:47:10.839Z,100411.09
2023-06-04T22:49:38.921Z,100420.19
2023-06-04T22:52:09.019Z,100405.06
2023-06-04T22:54:36.081Z,100411.56
2023-06-04T22:57:02.961Z,100400.16
2023-06-04T22:59:29.938Z,100397.09
2023-06-04T23:01:57.118Z,100402.00
2023-06-04T23:04:24.275Z,100394.03
2023-06-04T23:06:51.241Z,100401.75
2023-06-04T23:09:18.155Z,100395.63
2023-06-04T23:11:45.156Z,100400.06
2023-06-04T23:14:12.549Z,100388.03
2023-06-04T23:16:39.482Z,100397.31
2023-06-04T23:19:07.559Z,100400.06
2023-06-04T23:21:34.457Z,100393.81
2023-06-04T23:24:01.426Z,100401.22
2023-06-04T23:26:28.336Z,100391.75
2023-06-04T23:28:55.218Z,100389.59
2023-06-04T23:31:22.274Z,100390.84
2023-06-04T23:33:49.212Z,100386.63
2023-06-04T23:36:16.498Z,100391.19
2023-06-04T23:38:43.354Z,100383.66
2023-06-04T23:41:10.455Z,100380.81
2023-06-04T23:43:37.551Z,100376.13
2023-06-04T23:46:04.461Z,100378.34
2023-06-04T23:48:31.334Z,100384.13
2023-06-04T23:50:58.179Z,100381.97
2023-06-04T23:53:25.352Z,100373.78
2023-06-04T23:55:52.279Z,100379.34
2023-06-04T23:58:20.460Z,100369.56
